Time;durP1;ratioP1;P1;durP2;ratioP2;P2;SDS_P1;SDS_P2;PMS_P1;PMS_P2;Temp;Humidity;BMP_temperature;BMP_pressure;BME280_temperature;BME280_humidity;BME280_pressure;Samples;Min_cycle;Max_cycle;Signal;HPM_P1;HPM_P2
2021/06/23 00:01:13;;;;;;;0.50;0.50;;;;;;;;;;5042078;28;20485;-63
2021/06/23 00:03:38;;;;;;;0.30;0.30;;;;;;;;;;5042706;28;20149;-63
2021/06/23 00:06:04;;;;;;;0.40;0.40;;;;;;;;;;5042175;28;20041;-63
2021/06/23 00:08:29;;;;;;;0.40;0.40;;;;;;;;;;5042332;28;20037;-63
2021/06/23 00:10:55;;;;;;;0.55;0.40;;;;;;;;;;5042581;28;20743;-63
2021/06/23 00:13:21;;;;;;;0.68;0.40;;;;;;;;;;5024806;28;20036;-63
2021/06/23 00:15:46;;;;;;;0.30;0.30;;;;;;;;;;5041467;28;20571;-63
2021/06/23 00:18:12;;;;;;;0.40;0.40;;;;;;;;;;5024604;28;20112;-64
2021/06/23 00:20:37;;;;;;;0.55;0.32;;;;;;;;;;5042301;28;20087;-62
2021/06/23 00:23:03;;;;;;;0.40;0.40;;;;;;;;;;5043210;28;20036;-63
2021/06/23 00:25:29;;;;;;;0.40;0.40;;;;;;;;;;5034325;28;20385;-62
2021/06/23 00:27:55;;;;;;;0.40;0.40;;;;;;;;;;5043272;28;20659;-62
2021/06/23 00:30:20;;;;;;;0.40;0.40;;;;;;;;;;5043266;28;20052;-62
2021/06/23 00:32:46;;;;;;;0.40;0.40;;;;;;;;;;5041139;28;20033;-62
2021/06/23 00:35:12;;;;;;;0.40;0.40;;;;;;;;;;4998549;28;20522;-62
2021/06/23 00:37:38;;;;;;;0.40;0.40;;;;;;;;;;5019691;28;20040;-62
2021/06/23 00:40:04;;;;;;;0.40;0.40;;;;;;;;;;5037005;28;20087;-62
2021/06/23 00:42:30;;;;;;;0.30;0.30;;;;;;;;;;5041611;28;20092;-62
2021/06/23 00:44:56;;;;;;;0.43;0.43;;;;;;;;;;5024282;28;20204;-62
2021/06/23 00:47:25;;;;;;;0.30;0.30;;;;;;;;;;5042796;28;20037;-63
2021/06/23 00:49:51;;;;;;;0.40;0.40;;;;;;;;;;5041960;28;20124;-62
2021/06/23 00:52:46;;;;;;;0.30;0.30;;;;;;;;;;5027551;28;20038;-62
2021/06/23 00:55:26;;;;;;;0.30;0.30;;;;;;;;;;5007921;28;20486;-62
2021/06/23 00:57:52;;;;;;;0.40;0.40;;;;;;;;;;5024378;28;20045;-62
2021/06/23 01:00:19;;;;;;;0.40;0.40;;;;;;;;;;5023276;28;20132;-62
2021/06/23 01:02:45;;;;;;;2.78;1.58;;;;;;;;;;5035282;28;20855;-62
2021/06/23 01:05:11;;;;;;;3.38;1.58;;;;;;;;;;5042588;28;20081;-62
2021/06/23 01:07:37;;;;;;;3.72;1.77;;;;;;;;;;5031273;28;20045;-62
2021/06/23 01:10:03;;;;;;;3.67;1.90;;;;;;;;;;5024375;28;20485;-62
2021/06/23 01:12:59;;;;;;;3.92;1.60;;;;;;;;;;5023976;28;20025;-62
2021/06/23 01:15:25;;;;;;;2.22;1.50;;;;;;;;;;5041726;28;20030;-62
2021/06/23 01:17:51;;;;;;;2.63;1.48;;;;;;;;;;5010671;28;20041;-62
2021/06/23 01:20:17;;;;;;;5.35;1.65;;;;;;;;;;5035313;28;20102;-62
2021/06/23 01:22:43;;;;;;;3.33;1.67;;;;;;;;;;5040860;28;26995;-62
2021/06/23 01:25:12;;;;;;;2.60;1.50;;;;;;;;;;5042227;28;20049;-62
2021/06/23 01:27:40;;;;;;;2.58;1.50;;;;;;;;;;5042401;28;20046;-62
2021/06/23 01:30:06;;;;;;;3.92;1.90;;;;;;;;;;5040913;28;20060;-62
2021/06/23 01:32:46;;;;;;;3.65;1.92;;;;;;;;;;5040809;28;20471;-62
2021/06/23 01:35:12;;;;;;;3.40;1.98;;;;;;;;;;5032860;28;20057;-62
2021/06/23 01:37:38;;;;;;;3.38;1.83;;;;;;;;;;5023942;28;20017;-62
2021/06/23 01:40:05;;;;;;;4.85;1.90;;;;;;;;;;5042709;28;20044;-62
2021/06/23 01:42:32;;;;;;;3.78;1.77;;;;;;;;;;5040156;28;20029;-62
2021/06/23 01:45:00;;;;;;;3.13;1.73;;;;;;;;;;5041912;28;20029;-62
2021/06/23 01:47:27;;;;;;;5.00;2.00;;;;;;;;;;5027414;28;20041;-62
2021/06/23 01:49:52;;;;;;;3.20;1.63;;;;;;;;;;5018355;28;20062;-62
2021/06/23 01:52:20;;;;;;;3.20;1.90;;;;;;;;;;5041231;28;20026;-62
2021/06/23 01:54:47;;;;;;;2.55;1.75;;;;;;;;;;5042816;28;20095;-62
2021/06/23 01:57:13;;;;;;;3.25;1.75;;;;;;;;;;5035180;28;20091;-62
2021/06/23 01:59:39;;;;;;;2.47;1.80;;;;;;;;;;5042949;28;20060;-63
2021/06/23 02:02:19;;;;;;;2.55;1.60;;;;;;;;;;5039992;28;20544;-62
2021/06/23 02:05:03;;;;;;;3.17;1.85;;;;;;;;;;5041059;28;20480;-62
2021/06/23 02:07:58;;;;;;;2.83;1.60;;;;;;;;;;5039617;28;20521;-62
2021/06/23 02:10:47;;;;;;;4.10;2.00;;;;;;;;;;5042232;28;20486;-63
2021/06/23 02:13:57;;;;;;;3.72;1.90;;;;;;;;;;5028975;28;20044;-62
2021/06/23 02:16:47;;;;;;;4.13;1.90;;;;;;;;;;5024045;28;20042;-62
2021/06/23 02:19:16;;;;;;;2.42;1.70;;;;;;;;;;5040694;28;20044;-63
2021/06/23 02:22:00;;;;;;;1.98;1.70;;;;;;;;;;5040838;28;20033;-62
2021/06/23 02:24:28;;;;;;;2.75;1.70;;;;;;;;;;5039913;28;20104;-63
2021/06/23 02:26:57;;;;;;;3.78;2.22;;;;;;;;;;5043224;28;20494;-62
2021/06/23 02:29:24;;;;;;;2.97;1.90;;;;;;;;;;5011400;28;20030;-62
2021/06/23 02:31:51;;;;;;;2.90;2.10;;;;;;;;;;5043435;28;20133;-62
2021/06/23 02:34:16;;;;;;;2.78;1.85;;;;;;;;;;5027127;28;20414;-62
2021/06/23 02:37:17;;;;;;;3.72;2.05;;;;;;;;;;5031583;28;20103;-62
2021/06/23 02:39:43;;;;;;;3.22;1.98;;;;;;;;;;5020295;28;20087;-62
2021/06/23 02:42:09;;;;;;;3.00;1.77;;;;;;;;;;5030614;28;20133;-62
2021/06/23 02:44:36;;;;;;;4.35;2.28;;;;;;;;;;5044205;28;20060;-62
2021/06/23 02:47:03;;;;;;;3.40;2.28;;;;;;;;;;5042300;28;20625;-62
2021/06/23 02:49:44;;;;;;;3.33;2.00;;;;;;;;;;5028392;28;20071;-62
2021/06/23 02:52:11;;;;;;;2.67;2.10;;;;;;;;;;5034019;28;20065;-63
2021/06/23 02:54:36;;;;;;;4.18;2.22;;;;;;;;;;5025945;28;20038;-63
2021/06/23 02:57:22;;;;;;;4.85;2.03;;;;;;;;;;5036024;28;20053;-62
2021/06/23 02:59:48;;;;;;;2.85;2.00;;;;;;;;;;5043578;28;20037;-63
2021/06/23 03:02:13;;;;;;;3.47;1.88;;;;;;;;;;5012461;28;20143;-62
2021/06/23 03:04:45;;;;;;;3.33;2.33;;;;;;;;;;5019614;28;20041;-62
2021/06/23 03:07:14;;;;;;;4.07;2.22;;;;;;;;;;5041845;28;20045;-62
2021/06/23 03:09:45;;;;;;;4.38;2.13;;;;;;;;;;5027210;28;20053;-63
2021/06/23 03:12:25;;;;;;;3.40;2.20;;;;;;;;;;5044944;28;20047;-62
2021/06/23 03:15:11;;;;;;;4.10;2.17;;;;;;;;;;5041757;28;20608;-62
2021/06/23 03:17:37;;;;;;;3.25;1.67;;;;;;;;;;5029097;28;20045;-62
2021/06/23 03:20:07;;;;;;;3.85;2.35;;;;;;;;;;5040671;28;20801;-62
2021/06/23 03:22:37;;;;;;;3.72;2.03;;;;;;;;;;5026633;28;20036;-63
2021/06/23 03:25:03;;;;;;;2.10;1.90;;;;;;;;;;5040974;28;20552;-62
2021/06/23 03:27:29;;;;;;;3.55;2.10;;;;;;;;;;5025445;28;20345;-62
2021/06/23 03:29:55;;;;;;;2.97;1.90;;;;;;;;;;5042577;28;20570;-62
2021/06/23 03:32:21;;;;;;;3.90;2.17;;;;;;;;;;5044143;28;20033;-62
2021/06/23 03:34:47;;;;;;;3.80;2.00;;;;;;;;;;5041594;28;20072;-62
2021/06/23 03:37:14;;;;;;;3.08;2.17;;;;;;;;;;5042401;28;20036;-63
2021/06/23 03:39:41;;;;;;;4.47;2.00;;;;;;;;;;5042519;28;20442;-62
2021/06/23 03:42:08;;;;;;;2.80;2.00;;;;;;;;;;5043644;28;20030;-62
2021/06/23 03:44:34;;;;;;;3.35;1.88;;;;;;;;;;5020508;28;20120;-63
2021/06/23 03:47:02;;;;;;;3.90;1.70;;;;;;;;;;5042107;28;20036;-62
2021/06/23 03:49:29;;;;;;;3.85;2.08;;;;;;;;;;5035525;28;20029;-62
2021/06/23 03:51:58;;;;;;;3.58;1.98;;;;;;;;;;5037253;28;20044;-62
2021/06/23 03:54:24;;;;;;;5.25;2.10;;;;;;;;;;5042482;28;20022;-62
2021/06/23 03:56:53;;;;;;;3.97;2.15;;;;;;;;;;5041305;28;20025;-62
2021/06/23 03:59:19;;;;;;;3.45;1.92;;;;;;;;;;5041460;28;20045;-62
2021/06/23 04:01:44;;;;;;;2.55;1.88;;;;;;;;;;5025609;28;20048;-63
2021/06/23 04:04:12;;;;;;;5.32;2.10;;;;;;;;;;5041358;28;20048;-63
2021/06/23 04:06:56;;;;;;;2.85;1.90;;;;;;;;;;5042442;28;20049;-62
2021/06/23 04:09:22;;;;;;;3.30;2.08;;;;;;;;;;5042735;28;20401;-62
2021/06/23 04:11:53;;;;;;;4.05;2.10;;;;;;;;;;5037058;28;20084;-62
2021/06/23 04:14:19;;;;;;;2.80;1.98;;;;;;;;;;5038670;28;20442;-62
2021/06/23 04:16:44;;;;;;;4.28;2.10;;;;;;;;;;5040776;28;20033;-63
2021/06/23 04:19:12;;;;;;;3.08;1.90;;;;;;;;;;5041856;28;20041;-63
2021/06/23 04:21:46;;;;;;;4.85;1.90;;;;;;;;;;5026485;28;20492;-62
2021/06/23 04:24:12;;;;;;;2.50;1.70;;;;;;;;;;5041401;28;20041;-63
2021/06/23 04:26:41;;;;;;;4.05;1.98;;;;;;;;;;5020057;28;20597;-62
2021/06/23 04:29:08;;;;;;;2.00;1.75;;;;;;;;;;5041124;28;20080;-62
2021/06/23 04:31:33;;;;;;;2.67;1.77;;;;;;;;;;5040578;28;20657;-62
2021/06/23 04:33:59;;;;;;;3.28;2.15;;;;;;;;;;5035346;28;20041;-62
2021/06/23 04:36:25;;;;;;;4.05;1.90;;;;;;;;;;5040637;28;20034;-62
2021/06/23 04:38:50;;;;;;;4.65;2.00;;;;;;;;;;5041483;28;20136;-62
2021/06/23 04:41:16;;;;;;;4.63;2.10;;;;;;;;;;5028264;28;21172;-63
2021/06/23 04:43:42;;;;;;;3.13;1.75;;;;;;;;;;5035580;28;20397;-62
2021/06/23 04:46:08;;;;;;;4.10;1.60;;;;;;;;;;5039174;28;20099;-62
2021/06/23 04:48:33;;;;;;;2.53;1.85;;;;;;;;;;5040967;28;20025;-63
2021/06/23 04:51:00;;;;;;;3.40;1.83;;;;;;;;;;5041899;28;20045;-62
2021/06/23 04:53:29;;;;;;;4.25;2.13;;;;;;;;;;5023360;28;20081;-62
2021/06/23 04:55:57;;;;;;;2.30;1.70;;;;;;;;;;5041520;28;20037;-63
2021/06/23 04:58:25;;;;;;;3.20;1.85;;;;;;;;;;5041111;28;20041;-63
2021/06/23 05:01:00;;;;;;;2.55;1.50;;;;;;;;;;5029618;28;20045;-63
2021/06/23 05:03:35;;;;;;;2.92;1.60;;;;;;;;;;5041094;28;20056;-62
2021/06/23 05:06:01;;;;;;;2.33;1.70;;;;;;;;;;5042717;28;20424;-62
2021/06/23 05:08:27;;;;;;;3.70;1.58;;;;;;;;;;5043610;28;20041;-63
2021/06/23 05:10:53;;;;;;;4.00;2.00;;;;;;;;;;5039450;28;20069;-62
2021/06/23 05:13:19;;;;;;;4.53;2.20;;;;;;;;;;5042798;28;20033;-63
2021/06/23 05:15:44;;;;;;;2.15;1.67;;;;;;;;;;5036913;28;20128;-63
2021/06/23 05:18:10;;;;;;;3.28;1.65;;;;;;;;;;5037672;28;20060;-62
2021/06/23 05:20:35;;;;;;;3.67;1.90;;;;;;;;;;5026581;28;20528;-62
2021/06/23 05:23:01;;;;;;;2.63;1.50;;;;;;;;;;5041414;28;20029;-63
2021/06/23 05:25:26;;;;;;;2.13;1.60;;;;;;;;;;5023654;28;20457;-62
2021/06/23 05:27:52;;;;;;;3.55;1.80;;;;;;;;;;5043597;28;20344;-63
2021/06/23 05:30:18;;;;;;;3.33;1.70;;;;;;;;;;5044427;28;20871;-63
2021/06/23 05:32:43;;;;;;;3.00;1.90;;;;;;;;;;5042118;28;20025;-62
2021/06/23 05:35:09;;;;;;;3.05;1.70;;;;;;;;;;5042966;28;20490;-63
2021/06/23 05:37:34;;;;;;;3.30;1.80;;;;;;;;;;5041291;28;20049;-63
2021/06/23 05:40:00;;;;;;;3.17;1.80;;;;;;;;;;5042040;28;21529;-63
2021/06/23 05:42:25;;;;;;;3.40;1.70;;;;;;;;;;5041553;28;20036;-62
2021/06/23 05:44:51;;;;;;;2.70;1.80;;;;;;;;;;5041524;28;20252;-63
2021/06/23 05:47:16;;;;;;;3.25;1.80;;;;;;;;;;5042812;28;20042;-63
2021/06/23 05:49:42;;;;;;;3.80;1.83;;;;;;;;;;5024181;28;20048;-63
2021/06/23 05:52:07;;;;;;;2.83;1.60;;;;;;;;;;5034743;28;20021;-62
2021/06/23 05:54:33;;;;;;;3.17;1.60;;;;;;;;;;5044138;28;20041;-63
2021/06/23 05:56:58;;;;;;;5.05;2.17;;;;;;;;;;5043442;28;20041;-63
2021/06/23 05:59:24;;;;;;;4.20;2.13;;;;;;;;;;5027755;28;20167;-63
2021/06/23 06:01:49;;;;;;;2.67;1.70;;;;;;;;;;5039326;28;20033;-62
2021/06/23 06:04:15;;;;;;;4.45;2.03;;;;;;;;;;5046304;28;20044;-62
2021/06/23 06:06:40;;;;;;;3.20;1.88;;;;;;;;;;5046785;28;20563;-62
2021/06/23 06:09:06;;;;;;;3.10;1.85;;;;;;;;;;5045180;28;20055;-63
2021/06/23 06:11:31;;;;;;;3.33;1.90;;;;;;;;;;5045535;28;20064;-63
2021/06/23 06:13:57;;;;;;;3.10;1.45;;;;;;;;;;5047482;28;20040;-63
2021/06/23 06:16:22;;;;;;;3.28;1.80;;;;;;;;;;5062258;28;20137;-63
2021/06/23 06:18:48;;;;;;;2.13;1.52;;;;;;;;;;5046481;28;20041;-62
2021/06/23 06:21:14;;;;;;;2.53;1.52;;;;;;;;;;5037805;28;20112;-63
2021/06/23 06:23:39;;;;;;;3.22;1.80;;;;;;;;;;5021761;28;20057;-63
2021/06/23 06:26:05;;;;;;;4.05;1.48;;;;;;;;;;5045885;28;20029;-63
2021/06/23 06:28:31;;;;;;;2.35;1.50;;;;;;;;;;5045712;28;20664;-63
2021/06/23 06:30:56;;;;;;;4.68;1.90;;;;;;;;;;5031176;28;20045;-63
2021/06/23 06:33:22;;;;;;;2.55;1.45;;;;;;;;;;5045661;28;20164;-63
2021/06/23 06:35:47;;;;;;;4.20;1.60;;;;;;;;;;5040552;28;20140;-63
2021/06/23 06:38:12;;;;;;;2.28;1.40;;;;;;;;;;5045775;28;20670;-63
2021/06/23 06:40:38;;;;;;;2.90;1.63;;;;;;;;;;5045689;28;20072;-63
2021/06/23 06:43:04;;;;;;;4.28;1.73;;;;;;;;;;5046160;28;20029;-63
2021/06/23 06:45:29;;;;;;;3.95;1.85;;;;;;;;;;5045927;28;20034;-63
2021/06/23 06:47:55;;;;;;;3.95;2.03;;;;;;;;;;5045346;28;20501;-63
2021/06/23 06:50:20;;;;;;;3.38;1.80;;;;;;;;;;5045480;28;20040;-63
2021/06/23 06:52:46;;;;;;;2.38;1.63;;;;;;;;;;5044319;28;20371;-63
2021/06/23 06:55:11;;;;;;;3.38;1.60;;;;;;;;;;5045324;28;20029;-63
2021/06/23 06:57:37;;;;;;;2.50;1.45;;;;;;;;;;5045408;28;20041;-63
2021/06/23 07:00:06;;;;;;;3.08;1.70;;;;;;;;;;5045555;28;20041;-63
2021/06/23 07:02:31;;;;;;;3.35;1.70;;;;;;;;;;5046151;28;20051;-63
2021/06/23 07:04:57;;;;;;;3.15;1.60;;;;;;;;;;5044857;28;20545;-63
2021/06/23 07:07:22;;;;;;;3.20;1.45;;;;;;;;;;5037823;28;20579;-63
2021/06/23 07:09:48;;;;;;;4.07;1.40;;;;;;;;;;5042779;28;20574;-63
2021/06/23 07:12:14;;;;;;;3.35;1.60;;;;;;;;;;5044970;28;20091;-63
2021/06/23 07:14:39;;;;;;;2.92;1.50;;;;;;;;;;5046753;28;20045;-63
2021/06/23 07:17:05;;;;;;;3.67;1.48;;;;;;;;;;5045601;28;20069;-63
2021/06/23 07:19:30;;;;;;;3.25;1.80;;;;;;;;;;5046597;28;20044;-63
2021/06/23 07:21:56;;;;;;;3.22;1.70;;;;;;;;;;5045244;28;20045;-63
2021/06/23 07:24:21;;;;;;;4.63;1.75;;;;;;;;;;5045365;28;20045;-63
2021/06/23 07:26:48;;;;;;;2.83;1.50;;;;;;;;;;5045611;28;20413;-63
2021/06/23 07:29:16;;;;;;;3.90;1.73;;;;;;;;;;5045781;28;20044;-63
2021/06/23 07:31:52;;;;;;;3.35;1.77;;;;;;;;;;5044103;28;20038;-63
2021/06/23 07:37:08;;;;;;;4.10;1.60;;;;;;;;;;5042386;28;20467;-64
2021/06/23 07:39:35;;;;;;;2.78;1.52;;;;;;;;;;5044296;28;20327;-64
2021/06/23 07:42:00;;;;;;;2.53;1.45;;;;;;;;;;5044331;28;20034;-64
2021/06/23 07:47:16;;;;;;;3.03;1.52;;;;;;;;;;5043790;28;20073;-64
2021/06/23 07:49:43;;;;;;;3.60;1.42;;;;;;;;;;5042746;28;20042;-64
2021/06/23 07:52:12;;;;;;;3.08;1.50;;;;;;;;;;5044132;28;20037;-64
2021/06/23 07:54:47;;;;;;;3.00;1.50;;;;;;;;;;5042643;28;20033;-64
2021/06/23 08:08:49;;;;;;;3.05;1.60;;;;;;;;;;5020648;28;20128;-64
2021/06/23 08:11:38;;;;;;;2.55;1.60;;;;;;;;;;5038325;28;20077;-64
2021/06/23 08:14:03;;;;;;;2.20;1.50;;;;;;;;;;5044331;28;20054;-64
2021/06/23 08:16:29;;;;;;;3.78;1.50;;;;;;;;;;5025887;28;20119;-64
2021/06/23 08:18:54;;;;;;;1.60;1.40;;;;;;;;;;5044554;28;20572;-64
2021/06/23 08:21:20;;;;;;;2.33;1.38;;;;;;;;;;5042258;28;20617;-64
2021/06/23 08:23:45;;;;;;;2.47;1.55;;;;;;;;;;5036344;28;20034;-64
2021/06/23 08:26:11;;;;;;;3.53;1.83;;;;;;;;;;5044229;28;20474;-64
2021/06/23 08:28:36;;;;;;;2.08;1.38;;;;;;;;;;5042627;28;20045;-64
2021/06/23 08:31:02;;;;;;;2.53;1.80;;;;;;;;;;5042125;28;20061;-64
2021/06/23 08:33:27;;;;;;;3.33;1.60;;;;;;;;;;5038083;28;20041;-64
2021/06/23 08:35:53;;;;;;;5.32;1.75;;;;;;;;;;5043262;28;20045;-64
2021/06/23 08:38:20;;;;;;;2.42;1.48;;;;;;;;;;5043753;28;20045;-64
2021/06/23 08:40:45;;;;;;;3.60;1.70;;;;;;;;;;5042251;28;20691;-64
2021/06/23 08:43:18;;;;;;;4.63;1.70;;;;;;;;;;5038832;28;20026;-64
2021/06/23 08:45:44;;;;;;;2.40;1.65;;;;;;;;;;5041283;28;20124;-64
2021/06/23 08:48:10;;;;;;;3.95;1.90;;;;;;;;;;5043804;28;20057;-64
2021/06/23 08:50:36;;;;;;;2.80;1.40;;;;;;;;;;5042258;28;20075;-64
2021/06/23 08:53:01;;;;;;;3.28;1.67;;;;;;;;;;5025413;28;20083;-64
2021/06/23 08:55:27;;;;;;;4.43;1.88;;;;;;;;;;5044417;28;20026;-64
2021/06/23 08:57:52;;;;;;;2.45;1.60;;;;;;;;;;5043217;28;20398;-64
2021/06/23 09:00:19;;;;;;;3.70;1.77;;;;;;;;;;5042450;28;20168;-64
2021/06/23 09:02:45;;;;;;;3.10;1.70;;;;;;;;;;5035735;28;20035;-64
2021/06/23 09:05:11;;;;;;;3.35;1.65;;;;;;;;;;5042456;28;20033;-64
2021/06/23 09:07:43;;;;;;;3.13;1.67;;;;;;;;;;5024956;28;20048;-64
2021/06/23 09:10:28;;;;;;;3.42;1.67;;;;;;;;;;5043521;28;20117;-64
2021/06/23 09:13:00;;;;;;;2.72;1.20;;;;;;;;;;5044425;28;20033;-64
2021/06/23 09:15:41;;;;;;;3.28;1.70;;;;;;;;;;5058774;28;20124;-64
2021/06/23 09:18:14;;;;;;;4.03;1.73;;;;;;;;;;5043662;28;20557;-64
2021/06/23 09:20:40;;;;;;;2.67;1.20;;;;;;;;;;5043057;28;20034;-63
2021/06/23 09:23:06;;;;;;;2.05;1.20;;;;;;;;;;5042962;28;20033;-63
2021/06/23 09:25:34;;;;;;;2.80;1.30;;;;;;;;;;5038393;28;20037;-63
2021/06/23 09:28:01;;;;;;;1.88;1.52;;;;;;;;;;5042589;28;20045;-64
2021/06/23 09:30:37;;;;;;;2.22;1.50;;;;;;;;;;5010866;28;20571;-63
2021/06/23 09:33:18;;;;;;;2.42;1.40;;;;;;;;;;5040297;28;20699;-63
2021/06/23 09:35:55;;;;;;;1.90;1.27;;;;;;;;;;5042545;28;20033;-63
2021/06/23 09:38:47;;;;;;;3.95;1.83;;;;;;;;;;5042728;28;20033;-63
2021/06/23 09:41:21;;;;;;;3.40;1.80;;;;;;;;;;5041652;28;20117;-63
2021/06/23 09:43:49;;;;;;;3.80;1.40;;;;;;;;;;5041251;28;20280;-63
2021/06/23 09:46:19;;;;;;;3.85;1.55;;;;;;;;;;5040982;28;20037;-63
2021/06/23 09:48:45;;;;;;;2.05;1.30;;;;;;;;;;5040450;28;20041;-63
2021/06/23 09:51:13;;;;;;;3.47;1.58;;;;;;;;;;5041334;28;20036;-63
2021/06/23 09:53:38;;;;;;;2.78;1.52;;;;;;;;;;5036728;28;20037;-63
2021/06/23 09:56:04;;;;;;;1.95;1.20;;;;;;;;;;5042728;28;20041;-63
2021/06/23 09:58:36;;;;;;;4.30;1.65;;;;;;;;;;5042334;28;20041;-63
2021/06/23 10:01:05;;;;;;;3.75;1.63;;;;;;;;;;5043266;28;20087;-63
2021/06/23 10:03:52;;;;;;;4.63;1.70;;;;;;;;;;5041097;28;20037;-63
2021/06/23 10:06:19;;;;;;;4.38;1.60;;;;;;;;;;5041119;28;20042;-63
2021/06/23 10:08:45;;;;;;;2.78;1.65;;;;;;;;;;5041426;28;20026;-63
2021/06/23 10:11:10;;;;;;;5.00;1.85;;;;;;;;;;5025854;28;20040;-63
2021/06/23 10:13:36;;;;;;;5.40;2.20;;;;;;;;;;5040442;28;20025;-64
2021/06/23 10:16:01;;;;;;;4.03;1.73;;;;;;;;;;5024459;28;20037;-63
2021/06/23 10:18:27;;;;;;;3.80;1.85;;;;;;;;;;5025058;28;20107;-63
2021/06/23 10:20:52;;;;;;;4.63;2.10;;;;;;;;;;5041996;28;20041;-63
2021/06/23 10:23:18;;;;;;;4.55;2.33;;;;;;;;;;5013798;28;20026;-63
2021/06/23 10:25:44;;;;;;;5.45;1.88;;;;;;;;;;5024937;28;20532;-63
2021/06/23 10:28:10;;;;;;;6.18;2.22;;;;;;;;;;5041199;28;20049;-63
2021/06/23 10:30:36;;;;;;;4.60;2.20;;;;;;;;;;5042576;28;20022;-63
2021/06/23 10:33:01;;;;;;;3.55;1.90;;;;;;;;;;5043563;28;20044;-63
2021/06/23 10:35:27;;;;;;;4.38;1.77;;;;;;;;;;5026186;28;20382;-62
2021/06/23 10:37:52;;;;;;;5.57;1.70;;;;;;;;;;5043014;28;20045;-63
2021/06/23 10:40:18;;;;;;;3.35;1.60;;;;;;;;;;5039258;28;20080;-63
2021/06/23 10:42:44;;;;;;;4.43;1.85;;;;;;;;;;5032434;28;20042;-63
2021/06/23 10:45:10;;;;;;;3.95;1.77;;;;;;;;;;5041990;28;20041;-63
2021/06/23 10:47:39;;;;;;;2.60;1.50;;;;;;;;;;5045519;28;21098;-63
2021/06/23 10:50:32;;;;;;;3.55;1.90;;;;;;;;;;5043019;28;21023;-63
2021/06/23 10:52:57;;;;;;;4.80;1.95;;;;;;;;;;5041603;28;20053;-63
2021/06/23 10:55:23;;;;;;;3.22;1.85;;;;;;;;;;5029110;28;20049;-63
2021/06/23 10:57:50;;;;;;;4.45;2.00;;;;;;;;;;5046310;28;20034;-63
2021/06/23 11:00:21;;;;;;;3.03;1.52;;;;;;;;;;5038082;28;20033;-63
2021/06/23 11:02:49;;;;;;;3.10;1.70;;;;;;;;;;5046290;28;20112;-63
2021/06/23 11:05:18;;;;;;;4.32;1.75;;;;;;;;;;5042562;28;20049;-63
2021/06/23 11:07:50;;;;;;;3.65;1.95;;;;;;;;;;5021975;28;20069;-63
2021/06/23 11:10:16;;;;;;;4.20;2.15;;;;;;;;;;5045710;28;20037;-63
2021/06/23 11:12:49;;;;;;;4.95;1.92;;;;;;;;;;5045167;28;20021;-64
2021/06/23 11:15:22;;;;;;;3.13;1.70;;;;;;;;;;5028831;28;20029;-63
2021/06/23 11:17:49;;;;;;;3.17;1.70;;;;;;;;;;5044307;28;20040;-64
2021/06/23 11:20:20;;;;;;;3.55;1.70;;;;;;;;;;5044842;28;20480;-63
2021/06/23 11:22:46;;;;;;;;;;;;;;;;;;5044336;28;20037;-64
2021/06/23 11:25:25;;;;;;;4.07;1.80;;;;;;;;;;5045729;28;19921;-63
2021/06/23 11:28:09;;;;;;;3.78;1.85;;;;;;;;;;5044494;28;20069;-64
2021/06/23 11:30:35;;;;;;;3.72;2.00;;;;;;;;;;5043776;28;20042;-63
2021/06/23 11:33:28;;;;;;;3.03;1.60;;;;;;;;;;5042634;28;20029;-64
2021/06/23 11:35:54;;;;;;;4.15;2.05;;;;;;;;;;5043129;28;20034;-64
2021/06/23 11:38:20;;;;;;;2.90;1.98;;;;;;;;;;5045351;28;20069;-64
2021/06/23 11:40:45;;;;;;;3.72;1.77;;;;;;;;;;5043853;28;20077;-64
2021/06/23 11:43:11;;;;;;;3.75;1.80;;;;;;;;;;5038747;28;20098;-64
2021/06/23 11:45:36;;;;;;;4.05;1.85;;;;;;;;;;5044842;28;20045;-63
2021/06/23 11:48:02;;;;;;;4.00;1.90;;;;;;;;;;5044861;28;20045;-63
2021/06/23 11:50:27;;;;;;;3.35;1.80;;;;;;;;;;5043597;28;20369;-64
2021/06/23 11:52:53;;;;;;;4.35;1.92;;;;;;;;;;5043530;28;20448;-64
2021/06/23 11:55:24;;;;;;;2.90;1.80;;;;;;;;;;5044362;28;20038;-64
2021/06/23 11:57:51;;;;;;;4.50;2.20;;;;;;;;;;5042650;28;20057;-63
2021/06/23 12:00:17;;;;;;;3.60;1.80;;;;;;;;;;5036783;28;20025;-63
2021/06/23 12:02:42;;;;;;;3.63;1.75;;;;;;;;;;5045253;28;20529;-64
2021/06/23 12:05:08;;;;;;;4.57;1.90;;;;;;;;;;5045818;28;20048;-63
2021/06/23 12:07:34;;;;;;;4.22;2.33;;;;;;;;;;5044731;28;20115;-64
2021/06/23 12:10:01;;;;;;;4.25;1.95;;;;;;;;;;5044791;28;20544;-64
2021/06/23 12:12:27;;;;;;;2.75;1.73;;;;;;;;;;5041868;28;20037;-64
2021/06/23 12:14:53;;;;;;;3.60;1.92;;;;;;;;;;5042881;28;20504;-63
2021/06/23 12:17:18;;;;;;;4.18;2.00;;;;;;;;;;5026508;28;20090;-64
2021/06/23 12:19:45;;;;;;;5.10;2.00;;;;;;;;;;5042156;28;20049;-63
2021/06/23 12:22:11;;;;;;;3.22;1.70;;;;;;;;;;5059223;28;20029;-64
2021/06/23 12:24:37;;;;;;;3.22;2.15;;;;;;;;;;5060011;28;20030;-64
2021/06/23 12:27:02;;;;;;;4.05;2.20;;;;;;;;;;5043470;28;20797;-63
2021/06/23 12:29:28;;;;;;;3.78;2.08;;;;;;;;;;5044301;28;20469;-64
2021/06/23 12:31:55;;;;;;;3.72;1.98;;;;;;;;;;5037492;28;20456;-64
2021/06/23 12:34:20;;;;;;;3.47;1.83;;;;;;;;;;5041911;28;20057;-64
2021/06/23 12:36:46;;;;;;;3.17;2.05;;;;;;;;;;5041025;28;20030;-63
2021/06/23 12:39:11;;;;;;;6.28;2.08;;;;;;;;;;5024743;28;20486;-64
2021/06/23 12:41:37;;;;;;;3.72;1.92;;;;;;;;;;5060582;28;20044;-64
2021/06/23 12:44:02;;;;;;;4.03;1.90;;;;;;;;;;5044182;28;20042;-64
2021/06/23 12:46:28;;;;;;;5.03;2.15;;;;;;;;;;5041823;28;20037;-64
2021/06/23 12:48:53;;;;;;;4.85;1.88;;;;;;;;;;5043919;28;20371;-63
2021/06/23 12:51:19;;;;;;;3.65;1.80;;;;;;;;;;5042950;28;20041;-64
2021/06/23 12:53:44;;;;;;;3.13;1.80;;;;;;;;;;5044627;28;20025;-63
2021/06/23 12:56:09;;;;;;;2.90;1.90;;;;;;;;;;5041292;28;20091;-63
2021/06/23 12:58:35;;;;;;;5.47;2.50;;;;;;;;;;5042190;28;20511;-63
2021/06/23 13:01:02;;;;;;;4.72;2.50;;;;;;;;;;5041544;28;20033;-64
2021/06/23 13:03:27;;;;;;;3.35;1.65;;;;;;;;;;5042293;28;20038;-63
2021/06/23 13:05:54;;;;;;;2.80;1.60;;;;;;;;;;5042438;28;20497;-64
2021/06/23 13:08:20;;;;;;;3.78;2.15;;;;;;;;;;5042000;28;20045;-64
2021/06/23 13:10:45;;;;;;;4.72;2.20;;;;;;;;;;5042421;28;20913;-64
2021/06/23 13:13:11;;;;;;;4.75;2.03;;;;;;;;;;5033831;28;20511;-64
2021/06/23 13:15:38;;;;;;;3.58;1.70;;;;;;;;;;5042450;28;20523;-63
2021/06/23 13:18:03;;;;;;;2.83;1.90;;;;;;;;;;5041750;28;20091;-63
2021/06/23 13:20:29;;;;;;;3.30;1.88;;;;;;;;;;5041453;28;20172;-64
2021/06/23 13:22:54;;;;;;;3.70;2.10;;;;;;;;;;5042334;28;20103;-64
2021/06/23 13:25:20;;;;;;;4.75;2.30;;;;;;;;;;5036225;28;20198;-64
2021/06/23 13:27:47;;;;;;;3.65;2.08;;;;;;;;;;5007411;28;20058;-64
2021/06/23 13:30:13;;;;;;;4.72;2.28;;;;;;;;;;5004584;28;20042;-64
2021/06/23 13:32:39;;;;;;;4.40;1.90;;;;;;;;;;5022124;28;20120;-64
2021/06/23 13:35:05;;;;;;;2.90;1.83;;;;;;;;;;5022482;28;20095;-64
2021/06/23 13:37:31;;;;;;;5.45;2.10;;;;;;;;;;5022102;28;20066;-64
2021/06/23 13:39:57;;;;;;;2.85;1.90;;;;;;;;;;5020907;28;20038;-64
2021/06/23 13:42:22;;;;;;;3.88;2.10;;;;;;;;;;5013260;28;20034;-64
2021/06/23 13:44:48;;;;;;;3.83;2.00;;;;;;;;;;5014577;28;20976;-64
2021/06/23 13:47:13;;;;;;;4.85;2.13;;;;;;;;;;5020344;28;20132;-64
2021/06/23 13:49:39;;;;;;;3.75;1.83;;;;;;;;;;5022578;28;20030;-63
2021/06/23 13:52:04;;;;;;;2.83;1.83;;;;;;;;;;5019926;28;20029;-63
2021/06/23 13:54:30;;;;;;;3.20;1.80;;;;;;;;;;5021933;28;20489;-63
2021/06/23 13:56:55;;;;;;;2.75;1.65;;;;;;;;;;5021093;28;20461;-64
2021/06/23 13:59:21;;;;;;;3.92;2.20;;;;;;;;;;5019736;28;20030;-64
2021/06/23 14:01:46;;;;;;;4.50;2.00;;;;;;;;;;5021726;28;21283;-64
2021/06/23 14:04:12;;;;;;;3.25;2.10;;;;;;;;;;5022190;28;20046;-63
2021/06/23 14:06:37;;;;;;;3.72;2.17;;;;;;;;;;5015405;28;20092;-64
2021/06/23 14:09:03;;;;;;;4.22;2.00;;;;;;;;;;5023776;28;20037;-64
2021/06/23 14:11:28;;;;;;;3.72;2.05;;;;;;;;;;5021862;28;20127;-63
2021/06/23 14:13:54;;;;;;;2.65;1.83;;;;;;;;;;5023147;28;20572;-63
2021/06/23 14:16:19;;;;;;;6.30;2.40;;;;;;;;;;5022603;28;20046;-63
2021/06/23 14:18:45;;;;;;;2.80;1.75;;;;;;;;;;5021316;28;20038;-64
2021/06/23 14:21:10;;;;;;;3.58;2.00;;;;;;;;;;5010455;28;20048;-63
2021/06/23 14:23:36;;;;;;;3.38;2.00;;;;;;;;;;5027503;28;20041;-63
2021/06/23 14:26:03;;;;;;;3.75;1.75;;;;;;;;;;5022587;28;20080;-63
2021/06/23 14:28:30;;;;;;;4.00;1.85;;;;;;;;;;5026773;28;20033;-63
2021/06/23 14:30:56;;;;;;;3.35;2.03;;;;;;;;;;5026988;28;20046;-63
2021/06/23 14:33:21;;;;;;;4.07;2.10;;;;;;;;;;5018364;28;20034;-64
2021/06/23 14:35:47;;;;;;;3.80;2.08;;;;;;;;;;5025741;28;20601;-63
2021/06/23 14:38:12;;;;;;;4.10;2.22;;;;;;;;;;5025169;28;20435;-63
2021/06/23 14:40:40;;;;;;;5.38;2.33;;;;;;;;;;5016799;28;20042;-64
2021/06/23 14:43:05;;;;;;;4.80;2.10;;;;;;;;;;5026586;28;20486;-63
2021/06/23 14:45:31;;;;;;;3.55;2.22;;;;;;;;;;5026820;28;20038;-63
2021/06/23 14:47:56;;;;;;;4.15;2.20;;;;;;;;;;5026407;28;20040;-63
2021/06/23 14:50:22;;;;;;;4.47;2.40;;;;;;;;;;5019061;28;20045;-64
2021/06/23 14:52:48;;;;;;;3.83;2.40;;;;;;;;;;5024781;28;20057;-64
2021/06/23 14:55:14;;;;;;;4.43;2.63;;;;;;;;;;5026755;28;20041;-64
2021/06/23 14:57:39;;;;;;;3.42;1.92;;;;;;;;;;5008115;28;20505;-63
2021/06/23 15:00:07;;;;;;;4.43;2.38;;;;;;;;;;5025232;28;20048;-63
2021/06/23 15:02:33;;;;;;;6.00;2.50;;;;;;;;;;5026392;28;20518;-63
2021/06/23 15:04:58;;;;;;;5.13;2.45;;;;;;;;;;5026248;28;20030;-63